עמוד ראשי
METAR-TAF:

METAR-TAF

שדות תעופה :

Stony Rapids, ססקצ'ואן, קנדה

קו רוחב: 59-15N, קו אורך: 105-50W, גובה: 250מטר

תצפית מזג אוויר נוכחית

הדו"ח נערך לפני 44דקות, בשעה 11:00 UTC
רוח 3קשר מכיוון צפון/צפון-מערב, משתנה בין מערב ו צפון
טמפרטורת 12 צלסיוס
לחות 88%
לחץ 1013 hPa
ראות: 14.5קילומטר
עננים פזורים בגובה 2000רגל
עננים בינוניים בגובה 2700רגל
מעונן בגובה 3300רגל

METAR: CYSF 141100Z AUTO 33003KT 280V360 9SM SCT020 BKN027 OVC033 12/10 A2990 RMK SLP136

זמן: 05:44 (11:44 UTC)

תחזית

הדו"ח נערך לפני 6 שעות ו 4דקות, בשעה 05:40 UTC
תחזית בתוקף מ 14 ב 06 UTC עד 14 ב 18 UTC
רוח 3קשר עם כיוונים משתנים
ראות: 10קילומטר
מעונן בגובה 3000רגל
זמנית מ -
14 ב 06 UTC עד 14 ב 18 UTC
ראות: 10קילומטר
מעונן בגובה 2000רגל
ממטרי גשם קלים

TAF: CYSF 140540Z 1406/1418 VRB03KT P6SM OVC030 TEMPO 1406/1418 P6SM -SHRA OVC020 RMK FCST BASED ON AUTO OBS. NXT FCST BY 141200Z

תצפיות ותחזיות מזג אוויר לגבי יותר מ- 4,000 שדות תעופה ברחבי העולם. דוחות METAR ו- TAF.

התחנות הזמינות מסומנות בנקודות צהובות ואדומות על גבי המפה.

העבר את העכבר לנקודה הצבעונית על מנת לראות את שם התחנה.

לאחר מכן, לחץ כדי לראות את תוכן ואת תחזיות מזג האוויר.

כדי לשנות את המפה: לחץ על הכפתורים הירוקים עם הפלוס השחור כדי להתקרב; על הכפתור הירוק עם המקף כדי להתרחק; או בחיצים הירוקים למפות סמוכות.


METAR-TAF: